GLET48 YPLM-YPLM

Flight info

Callsign GLET48
Flight time 0h 17m
Altitude 6500
Route ONSLO DCT 21S16
Aircraft H60/L-SBDGRY/S

Departure

Time 2026-04-24 09:54
Airport Learmonth Airport (YPLM)

Arrival

Time 2026-04-24 10:11
Airport Learmonth Airport (YPLM)
Time Latitude Longitude Altitude Speed Heading
2026-04-24 09:41 -21.54102 114.11628 120 ft 0 kts
2026-04-24 09:44 -21.54088 114.11630 117 ft 7 kts 22°
2026-04-24 09:44 -21.54004 114.11649 189 ft 17 kts 22°
2026-04-24 09:44 -21.53866 114.11684 308 ft 23 kts 22°
2026-04-24 09:44 -21.53692 114.11724 497 ft 29 kts 22°
2026-04-24 09:45 -21.53503 114.11787 733 ft 25 kts 98°
2026-04-24 09:45 -21.53406 114.11863 825 ft 10 kts 171°
2026-04-24 09:45 -21.53443 114.11906 850 ft 16 kts 170°
2026-04-24 09:45 -21.53713 114.11983 821 ft 71 kts 166°
2026-04-24 09:46 -21.54327 114.12209 717 ft 119 kts 159°
2026-04-24 09:46 -21.54780 114.12820 888 ft 103 kts 117°
2026-04-24 09:46 -21.55322 114.13423 943 ft 123 kts 147°
2026-04-24 09:46 -21.56200 114.13615 969 ft 131 kts 182°
2026-04-24 09:47 -21.57112 114.13514 1164 ft 133 kts 183°
2026-04-24 09:47 -21.58061 114.13452 1349 ft 139 kts 182°
2026-04-24 09:47 -21.59060 114.13384 1534 ft 143 kts 182°
2026-04-24 09:47 -21.60059 114.13311 1728 ft 143 kts 181°
2026-04-24 09:48 -21.61054 114.13245 1904 ft 145 kts 182°
2026-04-24 09:48 -21.62082 114.13178 2027 ft 151 kts 181°
2026-04-24 09:48 -21.63172 114.13103 2121 ft 156 kts 181°
2026-04-24 09:48 -21.64260 114.13029 2202 ft 159 kts 181°
2026-04-24 09:49 -21.65386 114.12951 2245 ft 161 kts 181°
2026-04-24 09:49 -21.66521 114.12875 2269 ft 162 kts 181°
2026-04-24 09:49 -21.67645 114.12794 2279 ft 162 kts 181°
2026-04-24 09:49 -21.68790 114.12717 2279 ft 162 kts 181°
2026-04-24 09:50 -21.69919 114.12642 2282 ft 163 kts 182°
2026-04-24 09:50 -21.71055 114.12564 2281 ft 163 kts 181°
2026-04-24 09:50 -21.72204 114.12486 2279 ft 163 kts 181°
2026-04-24 09:50 -21.73335 114.12410 2280 ft 163 kts 182°
2026-04-24 09:51 -21.74484 114.12334 2278 ft 163 kts 182°
2026-04-24 09:51 -21.75615 114.12254 2280 ft 162 kts 182°
2026-04-24 09:51 -21.76739 114.12178 2280 ft 162 kts 182°
2026-04-24 09:51 -21.77877 114.12100 2281 ft 162 kts 182°
2026-04-24 09:52 -21.79003 114.12026 2280 ft 161 kts 182°
2026-04-24 09:52 -21.80138 114.11944 2284 ft 161 kts 182°
2026-04-24 09:52 -21.81251 114.11867 2283 ft 160 kts 181°
2026-04-24 09:52 -21.82378 114.11792 2282 ft 160 kts 181°
2026-04-24 09:53 -21.83493 114.11715 2287 ft 161 kts 181°
2026-04-24 09:53 -21.84619 114.11637 2287 ft 161 kts 181°
2026-04-24 09:53 -21.85754 114.11562 2288 ft 162 kts 182°
2026-04-24 09:53 -21.86888 114.11485 2286 ft 162 kts 180°
2026-04-24 09:54 -21.87962 114.11794 2282 ft 160 kts 158°
2026-04-24 09:54 -21.89085 114.11827 2286 ft 162 kts 188°
2026-04-24 09:54 -21.90191 114.11664 2286 ft 160 kts 181°
2026-04-24 09:54 -21.91313 114.11601 2282 ft 161 kts 182°
2026-04-24 09:55 -21.92440 114.11498 2288 ft 161 kts 182°
2026-04-24 09:55 -21.93563 114.11405 2288 ft 160 kts 182°
2026-04-24 09:55 -21.94686 114.11314 2288 ft 160 kts 182°
2026-04-24 09:55 -21.95805 114.11223 2288 ft 161 kts 183°
2026-04-24 09:56 -21.96921 114.11132 2288 ft 161 kts 182°
2026-04-24 09:56 -21.98050 114.11039 2287 ft 162 kts 182°
2026-04-24 09:56 -21.99188 114.10947 2289 ft 162 kts 182°
2026-04-24 09:56 -22.00306 114.10857 2285 ft 161 kts 182°
2026-04-24 09:57 -22.01435 114.10764 2289 ft 161 kts 182°
2026-04-24 09:57 -22.02567 114.10675 2285 ft 162 kts 182°
2026-04-24 09:57 -22.03702 114.10580 2290 ft 162 kts 181°
2026-04-24 09:57 -22.04823 114.10491 2289 ft 162 kts 182°
2026-04-24 09:58 -22.05964 114.10397 2290 ft 162 kts 182°
2026-04-24 09:58 -22.07086 114.10307 2291 ft 161 kts 182°
2026-04-24 09:58 -22.08206 114.10216 2290 ft 161 kts 182°
2026-04-24 09:58 -22.09338 114.10128 2289 ft 161 kts 183°
2026-04-24 09:59 -22.10463 114.10032 2289 ft 161 kts 182°
2026-04-24 09:59 -22.11580 114.09946 2297 ft 161 kts 182°
2026-04-24 09:59 -22.12703 114.09850 2299 ft 160 kts 183°
2026-04-24 09:59 -22.13819 114.09762 2297 ft 159 kts 182°
2026-04-24 10:00 -22.14941 114.09671 2295 ft 160 kts 182°
2026-04-24 10:00 -22.16048 114.09578 2299 ft 160 kts 182°
2026-04-24 10:00 -22.17169 114.09489 2299 ft 160 kts 182°
2026-04-24 10:00 -22.18278 114.09399 2301 ft 160 kts 182°
2026-04-24 10:01 -22.19395 114.09309 2302 ft 161 kts 182°
2026-04-24 10:01 -22.20522 114.09219 2302 ft 161 kts 182°
2026-04-24 10:01 -22.21649 114.09126 2302 ft 161 kts 182°
2026-04-24 10:01 -22.22779 114.09034 2302 ft 161 kts 182°
2026-04-24 10:02 -22.23863 114.08751 2299 ft 165 kts 206°
2026-04-24 10:02 -22.24609 114.07797 2303 ft 171 kts 246°
2026-04-24 10:02 -22.24635 114.06511 2303 ft 176 kts 284°
2026-04-24 10:02 -22.23923 114.05461 2329 ft 175 kts 323°
2026-04-24 10:03 -22.22856 114.05051 2333 ft 149 kts
2026-04-24 10:03 -22.21946 114.05285 2313 ft 121 kts 26°
2026-04-24 10:03 -22.21223 114.05639 2296 ft 111 kts 31°
2026-04-24 10:03 -22.20513 114.05988 2297 ft 111 kts 31°
2026-04-24 10:04 -22.19806 114.06332 2300 ft 112 kts 26°
2026-04-24 10:04 -22.19071 114.06653 2303 ft 110 kts 38°
2026-04-24 10:04 -22.18624 114.07269 2304 ft 103 kts 77°
2026-04-24 10:04 -22.18613 114.08015 2304 ft 98 kts 110°
2026-04-24 10:05 -22.18964 114.08630 2304 ft 96 kts 140°
2026-04-24 10:05 -22.19552 114.08949 2304 ft 96 kts 166°
2026-04-24 10:05 -22.20228 114.09013 2303 ft 97 kts 177°
2026-04-24 10:05 -22.20911 114.09006 2303 ft 98 kts 178°
2026-04-24 10:06 -22.21595 114.08993 2305 ft 98 kts 177°
2026-04-24 10:06 -22.22965 114.08959 2303 ft 98 kts 178°
2026-04-24 10:06 -22.23638 114.08810 2306 ft 100 kts 202°
2026-04-24 10:07 -22.24158 114.08295 2302 ft 105 kts 236°
2026-04-24 10:07 -22.24315 114.07524 2302 ft 110 kts 271°
2026-04-24 10:07 -22.24007 114.06755 2120 ft 116 kts 311°
2026-04-24 10:07 -22.23308 114.06338 1930 ft 115 kts 349°
2026-04-24 10:08 -22.22504 114.06284 1736 ft 116 kts
2026-04-24 10:08 -22.21696 114.06321 1549 ft 117 kts
2026-04-24 10:08 -22.20999 114.06338 1386 ft 116 kts
2026-04-24 10:08 -22.20199 114.06346 1197 ft 115 kts
2026-04-24 10:09 -22.19392 114.06350 762 ft 133 kts
2026-04-24 10:09 -22.18690 114.06837 459 ft 114 kts 77°
2026-04-24 10:09 -22.18748 114.07593 499 ft 100 kts 121°
2026-04-24 10:09 -22.19095 114.08214 453 ft 96 kts 126°
2026-04-24 10:10 -22.19509 114.08764 343 ft 92 kts 141°
2026-04-24 10:10 -22.20008 114.09132 293 ft 83 kts 162°
2026-04-24 10:10 -22.20546 114.09226 244 ft 77 kts 190°
2026-04-24 10:10 -22.21106 114.09177 138 ft 81 kts 188°
2026-04-24 10:11 -22.21683 114.09133 59 ft 78 kts 187°
2026-04-24 10:11 -22.22130 114.09065 74 ft 51 kts 211°
2026-04-24 10:11 -22.22197 114.08862 38 ft 19 kts 281°
2026-04-24 10:11 -22.22200 114.08766 25 ft 1 kts 275°
2026-04-24 10:12 -22.22200 114.08767 23 ft 0 kts 275°